sensor_id;sensor_type;location;lat;lon;timestamp;temperature;humidity
76203;DHT22;64985;46.364;17.008;2023-04-12T00:01:33;4.80;99.90
76203;DHT22;64985;46.364;17.008;2023-04-12T00:04:37;4.60;99.90
76203;DHT22;64985;46.364;17.008;2023-04-12T00:07:41;4.60;99.90
76203;DHT22;64985;46.364;17.008;2023-04-12T00:10:48;4.40;99.90
76203;DHT22;64985;46.364;17.008;2023-04-12T00:13:52;4.30;99.90
76203;DHT22;64985;46.364;17.008;2023-04-12T00:16:56;4.20;99.90
76203;DHT22;64985;46.364;17.008;2023-04-12T00:20:00;4.10;99.90
76203;DHT22;64985;46.364;17.008;2023-04-12T00:23:03;4.00;99.90
76203;DHT22;64985;46.364;17.008;2023-04-12T00:26:06;3.90;99.90
76203;DHT22;64985;46.364;17.008;2023-04-12T00:29:09;3.80;99.90
76203;DHT22;64985;46.364;17.008;2023-04-12T00:32:12;3.70;99.90
76203;DHT22;64985;46.364;17.008;2023-04-12T00:35:15;3.70;99.90
76203;DHT22;64985;46.364;17.008;2023-04-12T00:38:19;3.60;99.90
76203;DHT22;64985;46.364;17.008;2023-04-12T00:41:22;3.50;99.90
76203;DHT22;64985;46.364;17.008;2023-04-12T00:44:26;3.40;99.90
76203;DHT22;64985;46.364;17.008;2023-04-12T00:47:29;3.20;99.90
76203;DHT22;64985;46.364;17.008;2023-04-12T00:50:33;3.10;99.90
76203;DHT22;64985;46.364;17.008;2023-04-12T00:53:37;3.10;99.90
76203;DHT22;64985;46.364;17.008;2023-04-12T00:56:41;3.00;99.90
76203;DHT22;64985;46.364;17.008;2023-04-12T00:59:46;2.90;99.90
76203;DHT22;64985;46.364;17.008;2023-04-12T01:02:50;2.90;99.90
76203;DHT22;64985;46.364;17.008;2023-04-12T01:06:13;2.80;99.90
76203;DHT22;64985;46.364;17.008;2023-04-12T01:13:08;2.60;99.90
76203;DHT22;64985;46.364;17.008;2023-04-12T01:19:28;2.50;99.90
76203;DHT22;64985;46.364;17.008;2023-04-12T01:23:11;2.40;99.90
76203;DHT22;64985;46.364;17.008;2023-04-12T01:26:42;2.40;99.90
76203;DHT22;64985;46.364;17.008;2023-04-12T01:29:47;2.20;99.90
76203;DHT22;64985;46.364;17.008;2023-04-12T01:32:56;2.20;99.90
76203;DHT22;64985;46.364;17.008;2023-04-12T01:36:07;2.10;99.90
76203;DHT22;64985;46.364;17.008;2023-04-12T01:39:11;1.90;99.90
76203;DHT22;64985;46.364;17.008;2023-04-12T01:42:18;1.90;99.90
76203;DHT22;64985;46.364;17.008;2023-04-12T01:45:22;1.90;99.90
76203;DHT22;64985;46.364;17.008;2023-04-12T01:48:25;1.90;99.90
76203;DHT22;64985;46.364;17.008;2023-04-12T01:52:17;1.80;99.90
76203;DHT22;64985;46.364;17.008;2023-04-12T01:55:01;1.70;99.90
76203;DHT22;64985;46.364;17.008;2023-04-12T01:58:06;1.60;99.90
76203;DHT22;64985;46.364;17.008;2023-04-12T02:01:15;1.60;99.90
76203;DHT22;64985;46.364;17.008;2023-04-12T02:04:20;1.60;99.90
76203;DHT22;64985;46.364;17.008;2023-04-12T02:07:23;1.60;99.90
76203;DHT22;64985;46.364;17.008;2023-04-12T02:10:30;1.50;99.90
76203;DHT22;64985;46.364;17.008;2023-04-12T02:13:34;1.50;99.90
76203;DHT22;64985;46.364;17.008;2023-04-12T02:16:37;1.40;99.90
76203;DHT22;64985;46.364;17.008;2023-04-12T02:19:41;1.40;99.90
76203;DHT22;64985;46.364;17.008;2023-04-12T02:22:44;1.40;99.90
76203;DHT22;64985;46.364;17.008;2023-04-12T02:25:47;1.40;99.90
76203;DHT22;64985;46.364;17.008;2023-04-12T02:28:51;1.30;99.90
76203;DHT22;64985;46.364;17.008;2023-04-12T02:31:54;1.20;99.90
76203;DHT22;64985;46.364;17.008;2023-04-12T02:34:57;1.30;99.90
76203;DHT22;64985;46.364;17.008;2023-04-12T02:38:01;1.30;99.90
76203;DHT22;64985;46.364;17.008;2023-04-12T02:41:05;1.20;99.90
76203;DHT22;64985;46.364;17.008;2023-04-12T02:44:09;1.20;99.90
76203;DHT22;64985;46.364;17.008;2023-04-12T02:47:12;1.10;99.90
76203;DHT22;64985;46.364;17.008;2023-04-12T02:50:16;1.10;99.90
76203;DHT22;64985;46.364;17.008;2023-04-12T02:53:19;1.10;99.90
76203;DHT22;64985;46.364;17.008;2023-04-12T02:56:23;1.00;99.90
76203;DHT22;64985;46.364;17.008;2023-04-12T02:59:26;1.10;99.90
76203;DHT22;64985;46.364;17.008;2023-04-12T03:02:30;1.00;99.90
76203;DHT22;64985;46.364;17.008;2023-04-12T03:05:34;0.90;99.90
76203;DHT22;64985;46.364;17.008;2023-04-12T03:08:38;1.00;99.90
76203;DHT22;64985;46.364;17.008;2023-04-12T03:11:41;1.00;99.90
76203;DHT22;64985;46.364;17.008;2023-04-12T03:14:44;0.90;99.90
76203;DHT22;64985;46.364;17.008;2023-04-12T03:17:47;0.90;99.90
76203;DHT22;64985;46.364;17.008;2023-04-12T03:20:51;0.90;99.90
76203;DHT22;64985;46.364;17.008;2023-04-12T03:23:54;0.90;99.90
76203;DHT22;64985;46.364;17.008;2023-04-12T03:26:57;0.90;99.90
76203;DHT22;64985;46.364;17.008;2023-04-12T03:30:01;0.90;99.90
76203;DHT22;64985;46.364;17.008;2023-04-12T03:33:05;0.90;99.90
76203;DHT22;64985;46.364;17.008;2023-04-12T03:36:09;0.80;99.90
76203;DHT22;64985;46.364;17.008;2023-04-12T03:39:12;0.70;99.90
76203;DHT22;64985;46.364;17.008;2023-04-12T03:42:16;0.70;99.90
76203;DHT22;64985;46.364;17.008;2023-04-12T03:45:34;0.70;99.90
76203;DHT22;64985;46.364;17.008;2023-04-12T03:48:38;0.80;99.90
76203;DHT22;64985;46.364;17.008;2023-04-12T03:51:41;0.80;99.90
76203;DHT22;64985;46.364;17.008;2023-04-12T03:54:44;0.80;99.90
76203;DHT22;64985;46.364;17.008;2023-04-12T03:57:47;0.70;99.90
76203;DHT22;64985;46.364;17.008;2023-04-12T04:00:51;0.60;99.90
76203;DHT22;64985;46.364;17.008;2023-04-12T04:03:55;0.60;99.90
76203;DHT22;64985;46.364;17.008;2023-04-12T04:06:58;0.50;99.90
76203;DHT22;64985;46.364;17.008;2023-04-12T04:10:03;0.50;99.90
76203;DHT22;64985;46.364;17.008;2023-04-12T04:13:07;0.40;99.90
76203;DHT22;64985;46.364;17.008;2023-04-12T04:16:10;0.40;99.90
76203;DHT22;64985;46.364;17.008;2023-04-12T04:19:14;0.30;99.90
76203;DHT22;64985;46.364;17.008;2023-04-12T04:22:17;0.30;99.90
76203;DHT22;64985;46.364;17.008;2023-04-12T04:25:23;0.30;99.90
76203;DHT22;64985;46.364;17.008;2023-04-12T04:28:31;0.30;99.90
76203;DHT22;64985;46.364;17.008;2023-04-12T04:31:37;0.30;99.90
76203;DHT22;64985;46.364;17.008;2023-04-12T04:34:39;0.20;99.90
76203;DHT22;64985;46.364;17.008;2023-04-12T04:37:42;0.30;99.90
76203;DHT22;64985;46.364;17.008;2023-04-12T04:40:49;0.20;99.90
76203;DHT22;64985;46.364;17.008;2023-04-12T04:43:55;0.30;99.90
76203;DHT22;64985;46.364;17.008;2023-04-12T04:46:58;0.20;99.90
76203;DHT22;64985;46.364;17.008;2023-04-12T04:50:02;0.20;99.90
76203;DHT22;64985;46.364;17.008;2023-04-12T04:53:05;0.20;99.90
76203;DHT22;64985;46.364;17.008;2023-04-12T04:56:09;0.20;99.90
76203;DHT22;64985;46.364;17.008;2023-04-12T04:59:13;0.30;99.90
76203;DHT22;64985;46.364;17.008;2023-04-12T05:02:16;0.40;99.90
76203;DHT22;64985;46.364;17.008;2023-04-12T05:05:19;0.40;99.90
76203;DHT22;64985;46.364;17.008;2023-04-12T05:08:25;0.40;99.90
76203;DHT22;64985;46.364;17.008;2023-04-12T05:11:29;0.50;99.90
76203;DHT22;64985;46.364;17.008;2023-04-12T05:14:32;0.50;99.90
76203;DHT22;64985;46.364;17.008;2023-04-12T05:17:50;0.60;99.90
76203;DHT22;64985;46.364;17.008;2023-04-12T05:20:54;0.70;99.90
76203;DHT22;64985;46.364;17.008;2023-04-12T05:23:57;0.80;99.90
76203;DHT22;64985;46.364;17.008;2023-04-12T05:27:00;0.90;99.90
76203;DHT22;64985;46.364;17.008;2023-04-12T05:30:04;1.00;99.90
76203;DHT22;64985;46.364;17.008;2023-04-12T05:33:08;1.20;99.90
76203;DHT22;64985;46.364;17.008;2023-04-12T05:36:11;1.40;99.90
76203;DHT22;64985;46.364;17.008;2023-04-12T05:39:14;1.60;99.90
76203;DHT22;64985;46.364;17.008;2023-04-12T05:42:20;1.70;99.90
76203;DHT22;64985;46.364;17.008;2023-04-12T05:45:24;1.90;99.90
76203;DHT22;64985;46.364;17.008;2023-04-12T05:48:27;2.20;99.90
76203;DHT22;64985;46.364;17.008;2023-04-12T05:51:30;2.40;99.90
76203;DHT22;64985;46.364;17.008;2023-04-12T05:54:42;2.70;99.90
76203;DHT22;64985;46.364;17.008;2023-04-12T05:57:45;3.00;99.90
76203;DHT22;64985;46.364;17.008;2023-04-12T06:00:49;3.30;99.90
76203;DHT22;64985;46.364;17.008;2023-04-12T06:03:53;3.80;99.90
76203;DHT22;64985;46.364;17.008;2023-04-12T06:06:57;4.50;99.90
76203;DHT22;64985;46.364;17.008;2023-04-12T06:10:01;5.30;99.90
76203;DHT22;64985;46.364;17.008;2023-04-12T06:13:04;6.10;99.90
76203;DHT22;64985;46.364;17.008;2023-04-12T06:16:08;7.00;99.90
76203;DHT22;64985;46.364;17.008;2023-04-12T06:19:10;7.80;99.90
76203;DHT22;64985;46.364;17.008;2023-04-12T06:22:14;8.80;99.90
76203;DHT22;64985;46.364;17.008;2023-04-12T06:25:17;9.30;99.00
76203;DHT22;64985;46.364;17.008;2023-04-12T06:28:21;9.90;92.60
76203;DHT22;64985;46.364;17.008;2023-04-12T06:31:24;10.30;72.40
76203;DHT22;64985;46.364;17.008;2023-04-12T06:34:27;10.60;64.80
76203;DHT22;64985;46.364;17.008;2023-04-12T06:37:30;11.00;63.90
76203;DHT22;64985;46.364;17.008;2023-04-12T06:40:35;11.20;56.40
76203;DHT22;64985;46.364;17.008;2023-04-12T06:43:38;11.30;65.80
76203;DHT22;64985;46.364;17.008;2023-04-12T06:46:41;11.30;56.40
76203;DHT22;64985;46.364;17.008;2023-04-12T06:49:44;11.40;53.40
76203;DHT22;64985;46.364;17.008;2023-04-12T06:52:47;11.60;51.70
76203;DHT22;64985;46.364;17.008;2023-04-12T06:55:50;12.00;53.80
76203;DHT22;64985;46.364;17.008;2023-04-12T06:58:55;12.60;54.00
76203;DHT22;64985;46.364;17.008;2023-04-12T07:01:59;13.00;46.00
76203;DHT22;64985;46.364;17.008;2023-04-12T07:05:03;13.40;47.90
76203;DHT22;64985;46.364;17.008;2023-04-12T07:08:07;13.80;45.80
76203;DHT22;64985;46.364;17.008;2023-04-12T07:11:11;13.90;37.10
76203;DHT22;64985;46.364;17.008;2023-04-12T07:14:23;14.00;40.40
76203;DHT22;64985;46.364;17.008;2023-04-12T07:17:26;14.70;43.40
76203;DHT22;64985;46.364;17.008;2023-04-12T07:20:29;14.70;37.20
76203;DHT22;64985;46.364;17.008;2023-04-12T07:23:33;14.70;37.30
76203;DHT22;64985;46.364;17.008;2023-04-12T07:26:36;14.70;41.20
76203;DHT22;64985;46.364;17.008;2023-04-12T07:29:39;15.10;40.10
76203;DHT22;64985;46.364;17.008;2023-04-12T07:32:43;15.40;41.20
76203;DHT22;64985;46.364;17.008;2023-04-12T07:35:46;15.40;37.40
76203;DHT22;64985;46.364;17.008;2023-04-12T07:38:49;15.50;36.80
76203;DHT22;64985;46.364;17.008;2023-04-12T07:41:57;15.50;38.60
76203;DHT22;64985;46.364;17.008;2023-04-12T07:45:01;15.50;35.90
76203;DHT22;64985;46.364;17.008;2023-04-12T07:48:04;15.90;37.50
76203;DHT22;64985;46.364;17.008;2023-04-12T07:51:08;16.30;41.40
76203;DHT22;64985;46.364;17.008;2023-04-12T07:54:12;16.00;37.70
76203;DHT22;64985;46.364;17.008;2023-04-12T07:57:15;15.80;35.80
76203;DHT22;64985;46.364;17.008;2023-04-12T08:00:18;16.00;38.40
76203;DHT22;64985;46.364;17.008;2023-04-12T08:03:22;16.40;35.00
76203;DHT22;64985;46.364;17.008;2023-04-12T08:06:25;16.50;36.90
76203;DHT22;64985;46.364;17.008;2023-04-12T08:09:33;16.40;34.80
76203;DHT22;64985;46.364;17.008;2023-04-12T08:12:36;16.30;36.80
76203;DHT22;64985;46.364;17.008;2023-04-12T08:15:39;16.60;35.80
76203;DHT22;64985;46.364;17.008;2023-04-12T08:18:42;16.20;31.70
76203;DHT22;64985;46.364;17.008;2023-04-12T08:21:45;16.00;33.80
76203;DHT22;64985;46.364;17.008;2023-04-12T08:24:49;16.00;35.80
76203;DHT22;64985;46.364;17.008;2023-04-12T08:27:52;16.30;37.00
76203;DHT22;64985;46.364;17.008;2023-04-12T08:30:55;16.90;37.00
76203;DHT22;64985;46.364;17.008;2023-04-12T08:33:59;17.10;35.90
76203;DHT22;64985;46.364;17.008;2023-04-12T08:37:02;17.40;36.20
76203;DHT22;64985;46.364;17.008;2023-04-12T08:40:06;17.60;32.90
76203;DHT22;64985;46.364;17.008;2023-04-12T08:43:11;17.60;37.20
76203;DHT22;64985;46.364;17.008;2023-04-12T08:46:15;18.00;37.20
76203;DHT22;64985;46.364;17.008;2023-04-12T08:49:18;18.50;36.20
76203;DHT22;64985;46.364;17.008;2023-04-12T08:52:24;18.40;33.80
76203;DHT22;64985;46.364;17.008;2023-04-12T08:55:27;18.80;36.40
76203;DHT22;64985;46.364;17.008;2023-04-12T08:58:31;19.30;36.40
76203;DHT22;64985;46.364;17.008;2023-04-12T09:01:35;18.70;30.00
76203;DHT22;64985;46.364;17.008;2023-04-12T09:04:49;18.60;34.70
76203;DHT22;64985;46.364;17.008;2023-04-12T09:07:52;19.50;34.30
76203;DHT22;64985;46.364;17.008;2023-04-12T09:10:55;20.20;33.20
76203;DHT22;64985;46.364;17.008;2023-04-12T09:14:00;20.40;34.10
76203;DHT22;64985;46.364;17.008;2023-04-12T09:17:04;20.30;29.90
76203;DHT22;64985;46.364;17.008;2023-04-12T09:20:21;19.80;30.60
76203;DHT22;64985;46.364;17.008;2023-04-12T09:23:26;18.80;29.10
76203;DHT22;64985;46.364;17.008;2023-04-12T09:26:30;18.70;28.20
76203;DHT22;64985;46.364;17.008;2023-04-12T09:29:33;19.90;33.50
76203;DHT22;64985;46.364;17.008;2023-04-12T09:32:36;20.80;33.20
76203;DHT22;64985;46.364;17.008;2023-04-12T09:35:40;21.20;31.90
76203;DHT22;64985;46.364;17.008;2023-04-12T09:38:57;21.00;28.50
76203;DHT22;64985;46.364;17.008;2023-04-12T09:42:09;20.80;31.20
76203;DHT22;64985;46.364;17.008;2023-04-12T09:45:34;20.70;30.60
76203;DHT22;64985;46.364;17.008;2023-04-12T09:48:39;21.50;32.00
76203;DHT22;64985;46.364;17.008;2023-04-12T09:51:50;22.30;31.00
76203;DHT22;64985;46.364;17.008;2023-04-12T09:54:55;21.80;32.60
76203;DHT22;64985;46.364;17.008;2023-04-12T09:58:02;21.60;32.30
76203;DHT22;64985;46.364;17.008;2023-04-12T10:01:08;21.40;28.20
76203;DHT22;64985;46.364;17.008;2023-04-12T10:04:11;19.60;27.00
76203;DHT22;64985;46.364;17.008;2023-04-12T10:07:15;20.20;29.80
76203;DHT22;64985;46.364;17.008;2023-04-12T10:10:20;20.70;34.00
76203;DHT22;64985;46.364;17.008;2023-04-12T10:13:23;21.80;31.00
76203;DHT22;64985;46.364;17.008;2023-04-12T10:16:29;21.70;32.20
76203;DHT22;64985;46.364;17.008;2023-04-12T10:19:32;22.60;32.20
76203;DHT22;64985;46.364;17.008;2023-04-12T10:22:55;22.60;28.60
76203;DHT22;64985;46.364;17.008;2023-04-12T10:26:02;22.30;29.00
76203;DHT22;64985;46.364;17.008;2023-04-12T10:32:28;21.70;30.70
76203;DHT22;64985;46.364;17.008;2023-04-12T10:35:51;21.60;31.20
76203;DHT22;64985;46.364;17.008;2023-04-12T10:39:07;21.30;31.20
76203;DHT22;64985;46.364;17.008;2023-04-12T10:42:27;22.00;27.90
76203;DHT22;64985;46.364;17.008;2023-04-12T10:48:50;21.80;27.60
76203;DHT22;64985;46.364;17.008;2023-04-12T10:55:26;22.10;28.90
76203;DHT22;64985;46.364;17.008;2023-04-12T10:58:56;21.90;29.70
76203;DHT22;64985;46.364;17.008;2023-04-12T11:02:07;22.00;27.10
76203;DHT22;64985;46.364;17.008;2023-04-12T11:05:11;21.70;30.80
76203;DHT22;64985;46.364;17.008;2023-04-12T11:08:17;21.70;26.30
76203;DHT22;64985;46.364;17.008;2023-04-12T11:11:20;22.20;28.90
76203;DHT22;64985;46.364;17.008;2023-04-12T11:14:27;21.50;28.00
76203;DHT22;64985;46.364;17.008;2023-04-12T11:17:32;21.10;26.70
76203;DHT22;64985;46.364;17.008;2023-04-12T11:20:39;20.50;27.40
76203;DHT22;64985;46.364;17.008;2023-04-12T11:23:43;19.20;24.40
76203;DHT22;64985;46.364;17.008;2023-04-12T11:26:48;19.30;26.80
76203;DHT22;64985;46.364;17.008;2023-04-12T11:29:55;19.80;25.90
76203;DHT22;64985;46.364;17.008;2023-04-12T11:32:59;19.40;25.00
76203;DHT22;64985;46.364;17.008;2023-04-12T11:36:11;19.50;25.40
76203;DHT22;64985;46.364;17.008;2023-04-12T11:39:14;21.10;29.10
76203;DHT22;64985;46.364;17.008;2023-04-12T11:42:20;21.60;26.10
76203;DHT22;64985;46.364;17.008;2023-04-12T11:45:24;20.40;28.20
76203;DHT22;64985;46.364;17.008;2023-04-12T11:48:29;19.80;26.60
76203;DHT22;64985;46.364;17.008;2023-04-12T11:51:33;19.80;26.00
76203;DHT22;64985;46.364;17.008;2023-04-12T11:54:41;18.70;27.10
76203;DHT22;64985;46.364;17.008;2023-04-12T11:57:52;18.70;28.10
76203;DHT22;64985;46.364;17.008;2023-04-12T12:00:58;19.90;26.00
76203;DHT22;64985;46.364;17.008;2023-04-12T12:04:02;19.50;26.30
76203;DHT22;64985;46.364;17.008;2023-04-12T12:07:07;19.20;29.40
76203;DHT22;64985;46.364;17.008;2023-04-12T12:10:11;19.50;28.80
76203;DHT22;64985;46.364;17.008;2023-04-12T12:13:25;19.80;29.20
76203;DHT22;64985;46.364;17.008;2023-04-12T12:16:29;20.80;28.30
76203;DHT22;64985;46.364;17.008;2023-04-12T12:19:37;19.10;22.30
76203;DHT22;64985;46.364;17.008;2023-04-12T12:22:45;19.30;24.30
76203;DHT22;64985;46.364;17.008;2023-04-12T12:25:48;18.90;23.10
76203;DHT22;64985;46.364;17.008;2023-04-12T12:28:55;19.60;24.20
76203;DHT22;64985;46.364;17.008;2023-04-12T12:31:59;20.50;27.10
76203;DHT22;64985;46.364;17.008;2023-04-12T12:35:10;21.30;27.30
76203;DHT22;64985;46.364;17.008;2023-04-12T12:38:14;19.40;25.30
76203;DHT22;64985;46.364;17.008;2023-04-12T12:41:22;18.80;23.40
76203;DHT22;64985;46.364;17.008;2023-04-12T12:44:26;18.90;27.10
76203;DHT22;64985;46.364;17.008;2023-04-12T12:47:29;19.00;26.80
76203;DHT22;64985;46.364;17.008;2023-04-12T12:50:35;18.40;27.80
76203;DHT22;64985;46.364;17.008;2023-04-12T12:53:39;17.40;28.40
76203;DHT22;64985;46.364;17.008;2023-04-12T12:56:43;16.60;28.10
76203;DHT22;64985;46.364;17.008;2023-04-12T12:59:47;16.70;28.20
76203;DHT22;64985;46.364;17.008;2023-04-12T13:02:50;17.30;29.80
76203;DHT22;64985;46.364;17.008;2023-04-12T13:05:54;17.10;30.10
76203;DHT22;64985;46.364;17.008;2023-04-12T13:08:58;17.30;29.40
76203;DHT22;64985;46.364;17.008;2023-04-12T13:12:01;16.60;28.60
76203;DHT22;64985;46.364;17.008;2023-04-12T13:15:05;16.70;28.10
76203;DHT22;64985;46.364;17.008;2023-04-12T13:18:24;16.90;27.30
76203;DHT22;64985;46.364;17.008;2023-04-12T13:21:27;17.40;28.80
76203;DHT22;64985;46.364;17.008;2023-04-12T13:24:30;17.10;30.20
76203;DHT22;64985;46.364;17.008;2023-04-12T13:27:34;17.00;28.90
76203;DHT22;64985;46.364;17.008;2023-04-12T13:30:37;16.90;29.20
76203;DHT22;64985;46.364;17.008;2023-04-12T13:33:40;17.00;28.90
76203;DHT22;64985;46.364;17.008;2023-04-12T13:36:43;17.30;29.50
76203;DHT22;64985;46.364;17.008;2023-04-12T13:39:48;17.30;30.70
76203;DHT22;64985;46.364;17.008;2023-04-12T13:42:52;16.90;29.90
76203;DHT22;64985;46.364;17.008;2023-04-12T13:45:56;16.90;30.00
76203;DHT22;64985;46.364;17.008;2023-04-12T13:48:59;17.20;31.90
76203;DHT22;64985;46.364;17.008;2023-04-12T13:52:03;17.20;31.10
76203;DHT22;64985;46.364;17.008;2023-04-12T13:55:06;17.50;30.00
76203;DHT22;64985;46.364;17.008;2023-04-12T13:58:09;17.90;33.00
76203;DHT22;64985;46.364;17.008;2023-04-12T14:01:13;18.00;29.60
76203;DHT22;64985;46.364;17.008;2023-04-12T14:04:16;17.60;29.90
76203;DHT22;64985;46.364;17.008;2023-04-12T14:07:19;17.10;31.40
76203;DHT22;64985;46.364;17.008;2023-04-12T14:10:24;16.40;30.40
76203;DHT22;64985;46.364;17.008;2023-04-12T14:13:27;16.20;28.80
76203;DHT22;64985;46.364;17.008;2023-04-12T14:16:30;16.50;28.70
76203;DHT22;64985;46.364;17.008;2023-04-12T14:19:33;16.60;29.60
76203;DHT22;64985;46.364;17.008;2023-04-12T14:22:37;16.50;29.10
76203;DHT22;64985;46.364;17.008;2023-04-12T14:25:40;16.50;29.50
76203;DHT22;64985;46.364;17.008;2023-04-12T14:28:44;16.50;29.70
76203;DHT22;64985;46.364;17.008;2023-04-12T14:31:47;16.40;29.40
76203;DHT22;64985;46.364;17.008;2023-04-12T14:34:50;16.00;29.60
76203;DHT22;64985;46.364;17.008;2023-04-12T14:37:53;16.20;29.90
76203;DHT22;64985;46.364;17.008;2023-04-12T14:40:57;16.20;30.20
76203;DHT22;64985;46.364;17.008;2023-04-12T14:44:00;16.40;29.50
76203;DHT22;64985;46.364;17.008;2023-04-12T14:47:03;16.20;30.00
76203;DHT22;64985;46.364;17.008;2023-04-12T14:50:07;16.30;28.80
76203;DHT22;64985;46.364;17.008;2023-04-12T14:53:11;16.10;29.40
76203;DHT22;64985;46.364;17.008;2023-04-12T14:56:23;16.20;28.20
76203;DHT22;64985;46.364;17.008;2023-04-12T14:59:31;16.00;30.00
76203;DHT22;64985;46.364;17.008;2023-04-12T15:02:35;15.90;29.40
76203;DHT22;64985;46.364;17.008;2023-04-12T15:05:38;16.00;30.00
76203;DHT22;64985;46.364;17.008;2023-04-12T15:08:41;16.00;30.00
76203;DHT22;64985;46.364;17.008;2023-04-12T15:11:44;15.90;30.60
76203;DHT22;64985;46.364;17.008;2023-04-12T15:14:51;15.90;29.60
76203;DHT22;64985;46.364;17.008;2023-04-12T15:17:55;16.00;30.80
76203;DHT22;64985;46.364;17.008;2023-04-12T15:20:58;15.80;29.20
76203;DHT22;64985;46.364;17.008;2023-04-12T15:24:06;15.90;30.10
76203;DHT22;64985;46.364;17.008;2023-04-12T15:27:10;16.10;29.90
76203;DHT22;64985;46.364;17.008;2023-04-12T15:30:13;16.10;32.50
76203;DHT22;64985;46.364;17.008;2023-04-12T15:33:19;16.20;32.10
76203;DHT22;64985;46.364;17.008;2023-04-12T15:36:23;16.00;29.60
76203;DHT22;64985;46.364;17.008;2023-04-12T15:39:35;16.00;30.70
76203;DHT22;64985;46.364;17.008;2023-04-12T15:42:42;16.00;29.60
76203;DHT22;64985;46.364;17.008;2023-04-12T15:45:45;15.80;31.40
76203;DHT22;64985;46.364;17.008;2023-04-12T15:48:49;15.80;29.80
76203;DHT22;64985;46.364;17.008;2023-04-12T15:51:53;15.70;30.40
76203;DHT22;64985;46.364;17.008;2023-04-12T15:54:58;15.70;31.10
76203;DHT22;64985;46.364;17.008;2023-04-12T15:58:01;15.70;30.00
76203;DHT22;64985;46.364;17.008;2023-04-12T16:01:05;15.50;29.90
76203;DHT22;64985;46.364;17.008;2023-04-12T16:04:08;15.30;30.90
76203;DHT22;64985;46.364;17.008;2023-04-12T16:07:12;15.20;30.10
76203;DHT22;64985;46.364;17.008;2023-04-12T16:10:19;15.10;30.40
76203;DHT22;64985;46.364;17.008;2023-04-12T16:13:24;15.10;30.30
76203;DHT22;64985;46.364;17.008;2023-04-12T16:16:27;15.10;31.70
76203;DHT22;64985;46.364;17.008;2023-04-12T16:19:31;15.00;31.00
76203;DHT22;64985;46.364;17.008;2023-04-12T16:22:36;15.00;30.00
76203;DHT22;64985;46.364;17.008;2023-04-12T16:25:41;15.00;30.10
76203;DHT22;64985;46.364;17.008;2023-04-12T16:28:44;14.90;30.70
76203;DHT22;64985;46.364;17.008;2023-04-12T16:31:48;14.90;32.50
76203;DHT22;64985;46.364;17.008;2023-04-12T16:34:54;14.80;32.50
76203;DHT22;64985;46.364;17.008;2023-04-12T16:37:57;14.80;31.90
76203;DHT22;64985;46.364;17.008;2023-04-12T16:41:00;14.70;31.50
76203;DHT22;64985;46.364;17.008;2023-04-12T16:44:04;14.60;32.80
76203;DHT22;64985;46.364;17.008;2023-04-12T16:47:07;14.40;34.20
76203;DHT22;64985;46.364;17.008;2023-04-12T16:50:11;14.30;34.10
76203;DHT22;64985;46.364;17.008;2023-04-12T16:53:15;14.00;34.90
76203;DHT22;64985;46.364;17.008;2023-04-12T16:56:19;13.90;32.90
76203;DHT22;64985;46.364;17.008;2023-04-12T16:59:24;13.90;32.90
76203;DHT22;64985;46.364;17.008;2023-04-12T17:02:28;13.70;34.40
76203;DHT22;64985;46.364;17.008;2023-04-12T17:05:35;13.70;32.50
76203;DHT22;64985;46.364;17.008;2023-04-12T17:08:39;13.70;32.40
76203;DHT22;64985;46.364;17.008;2023-04-12T17:11:43;13.60;32.30
76203;DHT22;64985;46.364;17.008;2023-04-12T17:14:46;13.50;32.80
76203;DHT22;64985;46.364;17.008;2023-04-12T17:17:52;13.40;32.60
76203;DHT22;64985;46.364;17.008;2023-04-12T17:20:56;13.40;33.10
76203;DHT22;64985;46.364;17.008;2023-04-12T17:24:01;13.20;35.60
76203;DHT22;64985;46.364;17.008;2023-04-12T17:27:06;13.00;37.90
76203;DHT22;64985;46.364;17.008;2023-04-12T17:30:10;12.70;41.40
76203;DHT22;64985;46.364;17.008;2023-04-12T17:33:15;12.40;44.80
76203;DHT22;64985;46.364;17.008;2023-04-12T17:36:20;12.10;51.60
76203;DHT22;64985;46.364;17.008;2023-04-12T17:39:24;11.80;64.80
76203;DHT22;64985;46.364;17.008;2023-04-12T17:42:28;11.50;81.40
76203;DHT22;64985;46.364;17.008;2023-04-12T17:45:32;11.30;83.60
76203;DHT22;64985;46.364;17.008;2023-04-12T17:48:37;11.10;85.20
76203;DHT22;64985;46.364;17.008;2023-04-12T17:51:43;10.90;91.90
76203;DHT22;64985;46.364;17.008;2023-04-12T17:54:47;10.80;91.20
76203;DHT22;64985;46.364;17.008;2023-04-12T17:57:52;10.70;92.30
76203;DHT22;64985;46.364;17.008;2023-04-12T18:00:56;10.50;92.10
76203;DHT22;64985;46.364;17.008;2023-04-12T18:04:00;10.40;93.90
76203;DHT22;64985;46.364;17.008;2023-04-12T18:07:05;10.20;94.20
76203;DHT22;64985;46.364;17.008;2023-04-12T18:10:12;10.20;89.30
76203;DHT22;64985;46.364;17.008;2023-04-12T18:13:20;10.10;92.40
76203;DHT22;64985;46.364;17.008;2023-04-12T18:16:24;10.10;92.10
76203;DHT22;64985;46.364;17.008;2023-04-12T18:19:28;10.10;92.60
76203;DHT22;64985;46.364;17.008;2023-04-12T18:22:31;10.00;95.60
76203;DHT22;64985;46.364;17.008;2023-04-12T18:25:35;9.70;97.80
76203;DHT22;64985;46.364;17.008;2023-04-12T18:28:39;9.60;98.80
76203;DHT22;64985;46.364;17.008;2023-04-12T18:31:44;9.50;98.40
76203;DHT22;64985;46.364;17.008;2023-04-12T18:34:47;9.40;99.90
76203;DHT22;64985;46.364;17.008;2023-04-12T18:37:52;9.40;99.90
76203;DHT22;64985;46.364;17.008;2023-04-12T18:41:00;9.40;99.90
76203;DHT22;64985;46.364;17.008;2023-04-12T18:44:04;9.40;95.00
76203;DHT22;64985;46.364;17.008;2023-04-12T18:47:11;9.50;98.80
76203;DHT22;64985;46.364;17.008;2023-04-12T18:50:15;9.40;99.80
76203;DHT22;64985;46.364;17.008;2023-04-12T18:53:22;9.40;99.90
76203;DHT22;64985;46.364;17.008;2023-04-12T18:56:26;9.30;99.90
76203;DHT22;64985;46.364;17.008;2023-04-12T18:59:30;9.30;99.90
76203;DHT22;64985;46.364;17.008;2023-04-12T19:02:34;9.20;99.90
76203;DHT22;64985;46.364;17.008;2023-04-12T19:05:39;9.20;99.90
76203;DHT22;64985;46.364;17.008;2023-04-12T19:08:43;9.20;99.90
76203;DHT22;64985;46.364;17.008;2023-04-12T19:11:46;9.20;99.90
76203;DHT22;64985;46.364;17.008;2023-04-12T19:14:52;9.20;99.90
76203;DHT22;64985;46.364;17.008;2023-04-12T19:17:56;9.20;99.00
76203;DHT22;64985;46.364;17.008;2023-04-12T19:21:03;9.30;98.40
76203;DHT22;64985;46.364;17.008;2023-04-12T19:24:08;9.30;99.90
76203;DHT22;64985;46.364;17.008;2023-04-12T19:27:13;9.20;99.90
76203;DHT22;64985;46.364;17.008;2023-04-12T19:30:20;9.20;99.70
76203;DHT22;64985;46.364;17.008;2023-04-12T19:33:25;9.10;99.90
76203;DHT22;64985;46.364;17.008;2023-04-12T19:36:29;9.00;99.90